sensor_id;sensor_type;location;lat;lon;timestamp;P1;durP1;ratioP1;P2;durP2;ratioP2
27505;SDS011;14939;43.596;1.320;2023-04-10T00:02:43;7.32;;;3.97;;
27505;SDS011;14939;43.596;1.320;2023-04-10T00:05:12;6.47;;;4.07;;
27505;SDS011;14939;43.596;1.320;2023-04-10T00:07:38;5.47;;;3.17;;
27505;SDS011;14939;43.596;1.320;2023-04-10T00:10:04;6.90;;;3.20;;
27505;SDS011;14939;43.596;1.320;2023-04-10T00:12:34;5.15;;;3.13;;
27505;SDS011;14939;43.596;1.320;2023-04-10T00:15:01;7.43;;;3.40;;
27505;SDS011;14939;43.596;1.320;2023-04-10T00:17:47;6.45;;;3.45;;
27505;SDS011;14939;43.596;1.320;2023-04-10T00:20:18;5.28;;;3.17;;
27505;SDS011;14939;43.596;1.320;2023-04-10T00:22:59;5.88;;;3.63;;
27505;SDS011;14939;43.596;1.320;2023-04-10T00:25:27;6.05;;;3.13;;
27505;SDS011;14939;43.596;1.320;2023-04-10T00:27:55;5.10;;;3.13;;
27505;SDS011;14939;43.596;1.320;2023-04-10T00:30:41;6.10;;;3.15;;
27505;SDS011;14939;43.596;1.320;2023-04-10T00:33:16;5.22;;;3.05;;
27505;SDS011;14939;43.596;1.320;2023-04-10T00:36:06;3.80;;;2.85;;
27505;SDS011;14939;43.596;1.320;2023-04-10T00:38:40;6.68;;;2.97;;
27505;SDS011;14939;43.596;1.320;2023-04-10T00:41:06;6.95;;;2.80;;
27505;SDS011;14939;43.596;1.320;2023-04-10T00:43:35;3.95;;;2.83;;
27505;SDS011;14939;43.596;1.320;2023-04-10T00:46:01;7.72;;;3.00;;
27505;SDS011;14939;43.596;1.320;2023-04-10T00:48:28;4.55;;;2.80;;
27505;SDS011;14939;43.596;1.320;2023-04-10T00:50:54;4.97;;;2.55;;
27505;SDS011;14939;43.596;1.320;2023-04-10T00:53:41;4.10;;;2.90;;
27505;SDS011;14939;43.596;1.320;2023-04-10T00:56:11;5.10;;;2.67;;
27505;SDS011;14939;43.596;1.320;2023-04-10T00:59:11;5.60;;;2.90;;
27505;SDS011;14939;43.596;1.320;2023-04-10T01:01:54;4.13;;;2.58;;
27505;SDS011;14939;43.596;1.320;2023-04-10T01:04:48;5.28;;;2.80;;
27505;SDS011;14939;43.596;1.320;2023-04-10T01:10:43;5.78;;;2.20;;
27505;SDS011;14939;43.596;1.320;2023-04-10T01:13:35;4.22;;;2.88;;
27505;SDS011;14939;43.596;1.320;2023-04-10T01:16:50;6.10;;;2.70;;
27505;SDS011;14939;43.596;1.320;2023-04-10T01:29:44;5.53;;;2.28;;
27505;SDS011;14939;43.596;1.320;2023-04-10T01:32:25;5.03;;;2.15;;
27505;SDS011;14939;43.596;1.320;2023-04-10T01:34:56;5.07;;;2.50;;
27505;SDS011;14939;43.596;1.320;2023-04-10T01:37:36;5.55;;;2.85;;
27505;SDS011;14939;43.596;1.320;2023-04-10T01:40:08;4.97;;;2.60;;
27505;SDS011;14939;43.596;1.320;2023-04-10T01:43:14;6.10;;;2.88;;
27505;SDS011;14939;43.596;1.320;2023-04-10T01:45:59;7.40;;;3.03;;
27505;SDS011;14939;43.596;1.320;2023-04-10T01:49:06;6.55;;;2.30;;
27505;SDS011;14939;43.596;1.320;2023-04-10T01:51:36;11.55;;;2.50;;
27505;SDS011;14939;43.596;1.320;2023-04-10T01:54:36;7.78;;;2.50;;
27505;SDS011;14939;43.596;1.320;2023-04-10T01:57:19;8.52;;;2.40;;
27505;SDS011;14939;43.596;1.320;2023-04-10T01:59:51;6.32;;;2.60;;
27505;SDS011;14939;43.596;1.320;2023-04-10T02:02:31;5.32;;;2.80;;
27505;SDS011;14939;43.596;1.320;2023-04-10T02:05:41;6.25;;;2.80;;
27505;SDS011;14939;43.596;1.320;2023-04-10T02:07:49;5.22;;;3.05;;
27505;SDS011;14939;43.596;1.320;2023-04-10T02:10:26;5.93;;;3.33;;
27505;SDS011;14939;43.596;1.320;2023-04-10T02:13:05;5.85;;;3.28;;
27505;SDS011;14939;43.596;1.320;2023-04-10T02:15:37;6.25;;;3.33;;
27505;SDS011;14939;43.596;1.320;2023-04-10T02:18:24;5.43;;;3.15;;
27505;SDS011;14939;43.596;1.320;2023-04-10T02:21:10;5.45;;;3.25;;
27505;SDS011;14939;43.596;1.320;2023-04-10T02:23:39;5.45;;;3.60;;
27505;SDS011;14939;43.596;1.320;2023-04-10T02:26:10;8.80;;;3.33;;
27505;SDS011;14939;43.596;1.320;2023-04-10T02:28:41;4.93;;;3.15;;
27505;SDS011;14939;43.596;1.320;2023-04-10T02:31:32;4.53;;;3.33;;
27505;SDS011;14939;43.596;1.320;2023-04-10T02:34:34;6.38;;;3.35;;
27505;SDS011;14939;43.596;1.320;2023-04-10T02:37:03;6.75;;;3.22;;
27505;SDS011;14939;43.596;1.320;2023-04-10T02:42:53;5.72;;;3.70;;
27505;SDS011;14939;43.596;1.320;2023-04-10T02:45:32;6.35;;;3.20;;
27505;SDS011;14939;43.596;1.320;2023-04-10T02:48:06;6.80;;;3.30;;
27505;SDS011;14939;43.596;1.320;2023-04-10T02:50:35;4.60;;;3.08;;
27505;SDS011;14939;43.596;1.320;2023-04-10T02:53:18;6.38;;;2.95;;
27505;SDS011;14939;43.596;1.320;2023-04-10T02:55:52;8.82;;;3.33;;
27505;SDS011;14939;43.596;1.320;2023-04-10T02:59:02;5.55;;;3.40;;
27505;SDS011;14939;43.596;1.320;2023-04-10T03:01:37;4.93;;;3.45;;
27505;SDS011;14939;43.596;1.320;2023-04-10T03:04:32;5.20;;;3.75;;
27505;SDS011;14939;43.596;1.320;2023-04-10T03:07:10;9.65;;;5.07;;
27505;SDS011;14939;43.596;1.320;2023-04-10T03:10:04;6.55;;;5.07;;
27505;SDS011;14939;43.596;1.320;2023-04-10T03:12:53;5.72;;;5.07;;
27505;SDS011;14939;43.596;1.320;2023-04-10T03:15:44;6.95;;;4.68;;
27505;SDS011;14939;43.596;1.320;2023-04-10T03:18:30;14.38;;;4.05;;
27505;SDS011;14939;43.596;1.320;2023-04-10T03:21:14;6.80;;;3.63;;
27505;SDS011;14939;43.596;1.320;2023-04-10T03:23:42;7.47;;;3.17;;
27505;SDS011;14939;43.596;1.320;2023-04-10T03:26:11;6.07;;;3.38;;
27505;SDS011;14939;43.596;1.320;2023-04-10T03:28:37;6.50;;;3.33;;
27505;SDS011;14939;43.596;1.320;2023-04-10T03:31:07;5.10;;;3.47;;
27505;SDS011;14939;43.596;1.320;2023-04-10T03:33:44;10.10;;;3.80;;
27505;SDS011;14939;43.596;1.320;2023-04-10T03:39:16;8.38;;;3.65;;
27505;SDS011;14939;43.596;1.320;2023-04-10T03:42:24;6.25;;;3.75;;
27505;SDS011;14939;43.596;1.320;2023-04-10T03:44:53;8.00;;;4.18;;
27505;SDS011;14939;43.596;1.320;2023-04-10T03:47:30;9.73;;;4.70;;
27505;SDS011;14939;43.596;1.320;2023-04-10T03:50:01;12.85;;;5.22;;
27505;SDS011;14939;43.596;1.320;2023-04-10T03:52:50;10.48;;;5.20;;
27505;SDS011;14939;43.596;1.320;2023-04-10T03:55:16;10.32;;;5.35;;
27505;SDS011;14939;43.596;1.320;2023-04-10T03:57:46;10.82;;;6.03;;
27505;SDS011;14939;43.596;1.320;2023-04-10T04:00:20;10.27;;;5.88;;
27505;SDS011;14939;43.596;1.320;2023-04-10T04:02:48;10.88;;;5.80;;
27505;SDS011;14939;43.596;1.320;2023-04-10T04:05:19;9.93;;;5.40;;
27505;SDS011;14939;43.596;1.320;2023-04-10T04:08:13;11.05;;;6.22;;
27505;SDS011;14939;43.596;1.320;2023-04-10T04:10:39;13.02;;;6.90;;
27505;SDS011;14939;43.596;1.320;2023-04-10T04:13:10;11.77;;;6.63;;
27505;SDS011;14939;43.596;1.320;2023-04-10T04:18:42;9.02;;;6.65;;
27505;SDS011;14939;43.596;1.320;2023-04-10T04:21:13;13.10;;;7.30;;
27505;SDS011;14939;43.596;1.320;2023-04-10T04:26:52;11.98;;;5.90;;
27505;SDS011;14939;43.596;1.320;2023-04-10T04:29:45;9.30;;;5.90;;
27505;SDS011;14939;43.596;1.320;2023-04-10T04:32:13;13.98;;;5.93;;
27505;SDS011;14939;43.596;1.320;2023-04-10T04:34:51;15.52;;;7.18;;
27505;SDS011;14939;43.596;1.320;2023-04-10T04:37:37;12.27;;;6.53;;
27505;SDS011;14939;43.596;1.320;2023-04-10T04:43:02;14.48;;;6.55;;
27505;SDS011;14939;43.596;1.320;2023-04-10T04:45:28;11.48;;;6.20;;
27505;SDS011;14939;43.596;1.320;2023-04-10T04:47:57;12.82;;;6.03;;
27505;SDS011;14939;43.596;1.320;2023-04-10T04:51:12;10.02;;;5.65;;
27505;SDS011;14939;43.596;1.320;2023-04-10T04:53:43;9.70;;;5.15;;
27505;SDS011;14939;43.596;1.320;2023-04-10T04:56:31;8.30;;;5.55;;
27505;SDS011;14939;43.596;1.320;2023-04-10T04:59:43;9.77;;;6.15;;
27505;SDS011;14939;43.596;1.320;2023-04-10T05:02:26;11.60;;;6.38;;
27505;SDS011;14939;43.596;1.320;2023-04-10T05:05:00;12.65;;;6.20;;
27505;SDS011;14939;43.596;1.320;2023-04-10T05:07:35;11.50;;;6.50;;
27505;SDS011;14939;43.596;1.320;2023-04-10T05:10:04;12.88;;;6.60;;
27505;SDS011;14939;43.596;1.320;2023-04-10T05:12:39;11.82;;;6.82;;
27505;SDS011;14939;43.596;1.320;2023-04-10T05:15:13;17.73;;;8.02;;
27505;SDS011;14939;43.596;1.320;2023-04-10T05:17:49;14.27;;;7.32;;
27505;SDS011;14939;43.596;1.320;2023-04-10T05:20:40;15.00;;;9.15;;
27505;SDS011;14939;43.596;1.320;2023-04-10T05:23:08;18.15;;;8.85;;
27505;SDS011;14939;43.596;1.320;2023-04-10T05:25:52;18.10;;;9.50;;
27505;SDS011;14939;43.596;1.320;2023-04-10T05:28:20;18.25;;;9.57;;
27505;SDS011;14939;43.596;1.320;2023-04-10T05:30:52;16.38;;;9.55;;
27505;SDS011;14939;43.596;1.320;2023-04-10T05:33:18;18.88;;;8.75;;
27505;SDS011;14939;43.596;1.320;2023-04-10T05:35:44;18.38;;;9.55;;
27505;SDS011;14939;43.596;1.320;2023-04-10T05:38:13;24.02;;;10.85;;
27505;SDS011;14939;43.596;1.320;2023-04-10T05:40:48;24.27;;;11.25;;
27505;SDS011;14939;43.596;1.320;2023-04-10T05:43:42;23.33;;;12.55;;
27505;SDS011;14939;43.596;1.320;2023-04-10T05:46:40;24.05;;;12.63;;
27505;SDS011;14939;43.596;1.320;2023-04-10T05:49:45;28.48;;;12.85;;
27505;SDS011;14939;43.596;1.320;2023-04-10T05:52:33;22.75;;;12.35;;
27505;SDS011;14939;43.596;1.320;2023-04-10T05:55:05;24.63;;;13.15;;
27505;SDS011;14939;43.596;1.320;2023-04-10T05:57:39;24.65;;;13.00;;
27505;SDS011;14939;43.596;1.320;2023-04-10T06:00:14;24.80;;;13.05;;
27505;SDS011;14939;43.596;1.320;2023-04-10T06:02:45;27.70;;;12.57;;
27505;SDS011;14939;43.596;1.320;2023-04-10T06:05:36;21.90;;;13.15;;
27505;SDS011;14939;43.596;1.320;2023-04-10T06:08:30;23.38;;;13.55;;
27505;SDS011;14939;43.596;1.320;2023-04-10T06:11:03;22.30;;;12.95;;
27505;SDS011;14939;43.596;1.320;2023-04-10T06:13:40;24.20;;;12.57;;
27505;SDS011;14939;43.596;1.320;2023-04-10T06:16:12;28.67;;;12.73;;
27505;SDS011;14939;43.596;1.320;2023-04-10T06:18:44;25.35;;;13.48;;
27505;SDS011;14939;43.596;1.320;2023-04-10T06:21:36;23.88;;;12.73;;
27505;SDS011;14939;43.596;1.320;2023-04-10T06:24:07;30.38;;;13.75;;
27505;SDS011;14939;43.596;1.320;2023-04-10T06:26:56;29.30;;;13.70;;
27505;SDS011;14939;43.596;1.320;2023-04-10T06:29:41;23.05;;;12.40;;
27505;SDS011;14939;43.596;1.320;2023-04-10T06:32:21;27.27;;;13.50;;
27505;SDS011;14939;43.596;1.320;2023-04-10T06:35:08;23.67;;;13.25;;
27505;SDS011;14939;43.596;1.320;2023-04-10T06:37:36;25.35;;;12.48;;
27505;SDS011;14939;43.596;1.320;2023-04-10T06:42:53;20.92;;;12.75;;
27505;SDS011;14939;43.596;1.320;2023-04-10T06:45:34;27.52;;;12.80;;
27505;SDS011;14939;43.596;1.320;2023-04-10T06:50:56;28.45;;;12.10;;
27505;SDS011;14939;43.596;1.320;2023-04-10T06:53:53;25.05;;;13.40;;
27505;SDS011;14939;43.596;1.320;2023-04-10T06:56:21;24.48;;;12.07;;
27505;SDS011;14939;43.596;1.320;2023-04-10T06:58:52;24.83;;;12.07;;
27505;SDS011;14939;43.596;1.320;2023-04-10T07:01:20;23.77;;;11.98;;
27505;SDS011;14939;43.596;1.320;2023-04-10T07:03:50;24.30;;;12.38;;
27505;SDS011;14939;43.596;1.320;2023-04-10T07:06:17;19.35;;;11.48;;
27505;SDS011;14939;43.596;1.320;2023-04-10T07:08:47;22.42;;;11.55;;
27505;SDS011;14939;43.596;1.320;2023-04-10T07:11:14;21.90;;;11.57;;
27505;SDS011;14939;43.596;1.320;2023-04-10T07:13:41;22.30;;;11.85;;
27505;SDS011;14939;43.596;1.320;2023-04-10T07:16:09;24.80;;;11.18;;
27505;SDS011;14939;43.596;1.320;2023-04-10T07:18:37;21.27;;;10.38;;
27505;SDS011;14939;43.596;1.320;2023-04-10T07:51:17;24.85;;;9.45;;
27505;SDS011;14939;43.596;1.320;2023-04-10T07:53:43;18.08;;;8.10;;
27505;SDS011;14939;43.596;1.320;2023-04-10T07:56:14;18.67;;;9.13;;
27505;SDS011;14939;43.596;1.320;2023-04-10T07:58:43;18.77;;;8.75;;
27505;SDS011;14939;43.596;1.320;2023-04-10T08:01:09;81.57;;;10.90;;
27505;SDS011;14939;43.596;1.320;2023-04-10T08:03:42;15.57;;;8.40;;
27505;SDS011;14939;43.596;1.320;2023-04-10T08:06:09;20.25;;;9.43;;
27505;SDS011;14939;43.596;1.320;2023-04-10T08:08:35;14.68;;;8.10;;
27505;SDS011;14939;43.596;1.320;2023-04-10T08:11:02;21.98;;;9.23;;
27505;SDS011;14939;43.596;1.320;2023-04-10T08:13:31;19.10;;;8.48;;
27505;SDS011;14939;43.596;1.320;2023-04-10T08:15:57;18.67;;;8.60;;
27505;SDS011;14939;43.596;1.320;2023-04-10T08:18:22;24.00;;;9.00;;
27505;SDS011;14939;43.596;1.320;2023-04-10T08:20:48;20.00;;;8.55;;
27505;SDS011;14939;43.596;1.320;2023-04-10T08:23:14;15.68;;;8.02;;
27505;SDS011;14939;43.596;1.320;2023-04-10T08:25:39;19.80;;;9.25;;
27505;SDS011;14939;43.596;1.320;2023-04-10T08:28:05;17.13;;;8.32;;
27505;SDS011;14939;43.596;1.320;2023-04-10T08:30:31;16.40;;;8.55;;
27505;SDS011;14939;43.596;1.320;2023-04-10T08:32:56;21.58;;;8.50;;
27505;SDS011;14939;43.596;1.320;2023-04-10T08:35:22;22.08;;;8.13;;
27505;SDS011;14939;43.596;1.320;2023-04-10T08:37:47;19.10;;;8.65;;
27505;SDS011;14939;43.596;1.320;2023-04-10T08:40:13;16.25;;;8.60;;
27505;SDS011;14939;43.596;1.320;2023-04-10T08:42:39;18.23;;;8.23;;
27505;SDS011;14939;43.596;1.320;2023-04-10T08:45:05;17.63;;;8.35;;
27505;SDS011;14939;43.596;1.320;2023-04-10T08:47:33;19.38;;;8.35;;
27505;SDS011;14939;43.596;1.320;2023-04-10T08:50:05;17.63;;;8.52;;
27505;SDS011;14939;43.596;1.320;2023-04-10T08:52:32;17.13;;;7.53;;
27505;SDS011;14939;43.596;1.320;2023-04-10T08:55:03;16.67;;;7.53;;
27505;SDS011;14939;43.596;1.320;2023-04-10T08:57:31;14.05;;;7.80;;
27505;SDS011;14939;43.596;1.320;2023-04-10T08:59:58;15.35;;;7.57;;
27505;SDS011;14939;43.596;1.320;2023-04-10T09:02:24;15.10;;;7.75;;
27505;SDS011;14939;43.596;1.320;2023-04-10T09:04:50;17.95;;;7.43;;
27505;SDS011;14939;43.596;1.320;2023-04-10T09:07:19;17.27;;;7.15;;
27505;SDS011;14939;43.596;1.320;2023-04-10T09:09:47;15.32;;;7.07;;
27505;SDS011;14939;43.596;1.320;2023-04-10T09:12:13;16.45;;;6.90;;
27505;SDS011;14939;43.596;1.320;2023-04-10T09:14:40;14.63;;;6.55;;
27505;SDS011;14939;43.596;1.320;2023-04-10T09:17:16;21.13;;;7.30;;
27505;SDS011;14939;43.596;1.320;2023-04-10T09:19:47;14.10;;;6.20;;
27505;SDS011;14939;43.596;1.320;2023-04-10T09:22:13;15.93;;;6.60;;
27505;SDS011;14939;43.596;1.320;2023-04-10T09:24:41;14.15;;;6.15;;
27505;SDS011;14939;43.596;1.320;2023-04-10T09:27:08;14.70;;;6.70;;
27505;SDS011;14939;43.596;1.320;2023-04-10T09:29:37;12.48;;;6.00;;
27505;SDS011;14939;43.596;1.320;2023-04-10T09:32:07;12.20;;;6.45;;
27505;SDS011;14939;43.596;1.320;2023-04-10T09:34:33;14.32;;;6.53;;
27505;SDS011;14939;43.596;1.320;2023-04-10T09:36:59;15.75;;;6.38;;
27505;SDS011;14939;43.596;1.320;2023-04-10T09:41:58;14.82;;;6.25;;
27505;SDS011;14939;43.596;1.320;2023-04-10T09:44:31;14.13;;;6.38;;
27505;SDS011;14939;43.596;1.320;2023-04-10T09:49:43;12.45;;;5.78;;
27505;SDS011;14939;43.596;1.320;2023-04-10T09:52:43;14.70;;;6.35;;
27505;SDS011;14939;43.596;1.320;2023-04-10T09:55:05;14.60;;;6.50;;
27505;SDS011;14939;43.596;1.320;2023-04-10T09:57:33;12.00;;;5.72;;
27505;SDS011;14939;43.596;1.320;2023-04-10T10:00:00;13.80;;;6.07;;
27505;SDS011;14939;43.596;1.320;2023-04-10T10:02:33;12.85;;;5.82;;
27505;SDS011;14939;43.596;1.320;2023-04-10T10:05:04;15.65;;;5.78;;
27505;SDS011;14939;43.596;1.320;2023-04-10T10:07:31;13.68;;;5.88;;
27505;SDS011;14939;43.596;1.320;2023-04-10T10:09:57;13.07;;;6.15;;
27505;SDS011;14939;43.596;1.320;2023-04-10T10:15:15;13.50;;;5.70;;
27505;SDS011;14939;43.596;1.320;2023-04-10T10:17:44;12.23;;;5.75;;
27505;SDS011;14939;43.596;1.320;2023-04-10T10:20:17;13.93;;;5.93;;
27505;SDS011;14939;43.596;1.320;2023-04-10T10:22:46;16.17;;;6.25;;
27505;SDS011;14939;43.596;1.320;2023-04-10T10:25:13;16.02;;;6.22;;
27505;SDS011;14939;43.596;1.320;2023-04-10T10:27:39;10.68;;;5.53;;
27505;SDS011;14939;43.596;1.320;2023-04-10T10:30:06;13.73;;;5.60;;
27505;SDS011;14939;43.596;1.320;2023-04-10T10:32:33;14.65;;;6.25;;
27505;SDS011;14939;43.596;1.320;2023-04-10T10:35:00;12.07;;;5.78;;
27505;SDS011;14939;43.596;1.320;2023-04-10T10:37:28;12.85;;;5.57;;
27505;SDS011;14939;43.596;1.320;2023-04-10T10:42:56;16.27;;;5.40;;
27505;SDS011;14939;43.596;1.320;2023-04-10T10:48:33;12.98;;;5.13;;
27505;SDS011;14939;43.596;1.320;2023-04-10T10:50:59;13.50;;;6.10;;
27505;SDS011;14939;43.596;1.320;2023-04-10T10:53:41;10.70;;;5.28;;
27505;SDS011;14939;43.596;1.320;2023-04-10T11:03:41;12.32;;;5.30;;
27505;SDS011;14939;43.596;1.320;2023-04-10T11:06:09;11.25;;;4.93;;
27505;SDS011;14939;43.596;1.320;2023-04-10T11:11:26;11.98;;;5.55;;
27505;SDS011;14939;43.596;1.320;2023-04-10T11:16:20;8.95;;;5.20;;
27505;SDS011;14939;43.596;1.320;2023-04-10T11:21:26;14.90;;;5.43;;
27505;SDS011;14939;43.596;1.320;2023-04-10T11:31:44;29.25;;;22.35;;
27505;SDS011;14939;43.596;1.320;2023-04-10T11:34:22;17.73;;;11.40;;
27505;SDS011;14939;43.596;1.320;2023-04-10T11:36:48;13.90;;;5.50;;
27505;SDS011;14939;43.596;1.320;2023-04-10T11:39:14;9.85;;;5.80;;
27505;SDS011;14939;43.596;1.320;2023-04-10T11:46:51;12.18;;;6.20;;
27505;SDS011;14939;43.596;1.320;2023-04-10T11:49:18;10.55;;;6.05;;
27505;SDS011;14939;43.596;1.320;2023-04-10T11:51:46;14.30;;;6.40;;
27505;SDS011;14939;43.596;1.320;2023-04-10T11:54:14;12.13;;;5.80;;
27505;SDS011;14939;43.596;1.320;2023-04-10T11:56:44;9.77;;;5.85;;
27505;SDS011;14939;43.596;1.320;2023-04-10T11:59:21;14.27;;;5.63;;
27505;SDS011;14939;43.596;1.320;2023-04-10T12:01:49;11.15;;;5.63;;
27505;SDS011;14939;43.596;1.320;2023-04-10T12:04:21;10.98;;;6.05;;
27505;SDS011;14939;43.596;1.320;2023-04-10T12:06:49;11.68;;;5.57;;
27505;SDS011;14939;43.596;1.320;2023-04-10T12:09:16;13.57;;;6.00;;
27505;SDS011;14939;43.596;1.320;2023-04-10T12:12:02;11.85;;;6.13;;
27505;SDS011;14939;43.596;1.320;2023-04-10T12:14:39;14.32;;;6.10;;
27505;SDS011;14939;43.596;1.320;2023-04-10T12:17:06;10.90;;;5.88;;
27505;SDS011;14939;43.596;1.320;2023-04-10T12:19:33;17.90;;;6.10;;
27505;SDS011;14939;43.596;1.320;2023-04-10T12:21:59;14.85;;;6.00;;
27505;SDS011;14939;43.596;1.320;2023-04-10T12:24:43;11.63;;;5.95;;
27505;SDS011;14939;43.596;1.320;2023-04-10T12:27:24;12.18;;;6.03;;
27505;SDS011;14939;43.596;1.320;2023-04-10T12:29:52;12.25;;;6.15;;
27505;SDS011;14939;43.596;1.320;2023-04-10T12:32:22;14.07;;;6.20;;
27505;SDS011;14939;43.596;1.320;2023-04-10T12:34:52;11.63;;;6.20;;
27505;SDS011;14939;43.596;1.320;2023-04-10T12:37:22;12.95;;;6.32;;
27505;SDS011;14939;43.596;1.320;2023-04-10T12:40:07;12.73;;;6.30;;
27505;SDS011;14939;43.596;1.320;2023-04-10T12:42:33;12.95;;;6.55;;
27505;SDS011;14939;43.596;1.320;2023-04-10T12:45:05;14.48;;;6.72;;
27505;SDS011;14939;43.596;1.320;2023-04-10T12:47:41;13.20;;;6.82;;
27505;SDS011;14939;43.596;1.320;2023-04-10T12:50:13;11.50;;;6.50;;
27505;SDS011;14939;43.596;1.320;2023-04-10T12:52:44;12.77;;;6.70;;
27505;SDS011;14939;43.596;1.320;2023-04-10T12:55:19;11.80;;;5.75;;
27505;SDS011;14939;43.596;1.320;2023-04-10T12:57:46;14.05;;;6.20;;
27505;SDS011;14939;43.596;1.320;2023-04-10T13:00:14;13.65;;;6.50;;
27505;SDS011;14939;43.596;1.320;2023-04-10T13:02:41;13.50;;;6.68;;
27505;SDS011;14939;43.596;1.320;2023-04-10T13:05:07;13.00;;;6.55;;
27505;SDS011;14939;43.596;1.320;2023-04-10T13:07:33;10.60;;;5.70;;
27505;SDS011;14939;43.596;1.320;2023-04-10T13:10:00;11.75;;;5.85;;
27505;SDS011;14939;43.596;1.320;2023-04-10T13:12:26;12.88;;;5.65;;
27505;SDS011;14939;43.596;1.320;2023-04-10T13:14:54;13.07;;;5.43;;
27505;SDS011;14939;43.596;1.320;2023-04-10T13:17:20;14.00;;;5.75;;
27505;SDS011;14939;43.596;1.320;2023-04-10T13:19:49;8.63;;;5.90;;
27505;SDS011;14939;43.596;1.320;2023-04-10T13:22:15;9.45;;;5.22;;
27505;SDS011;14939;43.596;1.320;2023-04-10T13:24:41;12.85;;;5.90;;
27505;SDS011;14939;43.596;1.320;2023-04-10T13:27:07;12.68;;;6.13;;
27505;SDS011;14939;43.596;1.320;2023-04-10T13:29:34;12.77;;;6.07;;
27505;SDS011;14939;43.596;1.320;2023-04-10T13:32:01;11.35;;;6.57;;
27505;SDS011;14939;43.596;1.320;2023-04-10T13:34:29;11.63;;;6.18;;
27505;SDS011;14939;43.596;1.320;2023-04-10T13:36:58;12.43;;;6.43;;
27505;SDS011;14939;43.596;1.320;2023-04-10T13:39:27;9.27;;;5.35;;
27505;SDS011;14939;43.596;1.320;2023-04-10T13:41:54;12.20;;;5.90;;
27505;SDS011;14939;43.596;1.320;2023-04-10T13:44:20;10.55;;;5.65;;
27505;SDS011;14939;43.596;1.320;2023-04-10T13:46:46;12.18;;;5.80;;
27505;SDS011;14939;43.596;1.320;2023-04-10T13:49:11;8.05;;;5.40;;
27505;SDS011;14939;43.596;1.320;2023-04-10T13:51:41;9.68;;;5.32;;
27505;SDS011;14939;43.596;1.320;2023-04-10T13:54:07;8.05;;;5.43;;
27505;SDS011;14939;43.596;1.320;2023-04-10T13:56:34;9.27;;;5.47;;
27505;SDS011;14939;43.596;1.320;2023-04-10T13:59:00;11.30;;;5.35;;
27505;SDS011;14939;43.596;1.320;2023-04-10T14:01:26;15.18;;;5.35;;
27505;SDS011;14939;43.596;1.320;2023-04-10T14:03:51;9.98;;;4.43;;
27505;SDS011;14939;43.596;1.320;2023-04-10T14:06:17;9.55;;;4.80;;
27505;SDS011;14939;43.596;1.320;2023-04-10T14:08:42;10.48;;;4.53;;
27505;SDS011;14939;43.596;1.320;2023-04-10T14:11:08;8.20;;;4.07;;
27505;SDS011;14939;43.596;1.320;2023-04-10T14:13:34;10.10;;;4.20;;
27505;SDS011;14939;43.596;1.320;2023-04-10T14:15:59;8.35;;;3.90;;
27505;SDS011;14939;43.596;1.320;2023-04-10T14:18:25;7.70;;;4.03;;
27505;SDS011;14939;43.596;1.320;2023-04-10T14:20:51;7.88;;;4.07;;
27505;SDS011;14939;43.596;1.320;2023-04-10T14:23:16;9.40;;;4.53;;
27505;SDS011;14939;43.596;1.320;2023-04-10T14:25:45;10.45;;;4.25;;
27505;SDS011;14939;43.596;1.320;2023-04-10T14:28:11;11.00;;;4.50;;
27505;SDS011;14939;43.596;1.320;2023-04-10T14:30:42;8.35;;;3.95;;
27505;SDS011;14939;43.596;1.320;2023-04-10T14:33:08;7.55;;;3.78;;
27505;SDS011;14939;43.596;1.320;2023-04-10T14:35:34;8.48;;;4.25;;
27505;SDS011;14939;43.596;1.320;2023-04-10T14:38:00;7.78;;;4.00;;
27505;SDS011;14939;43.596;1.320;2023-04-10T14:40:27;13.90;;;4.05;;
27505;SDS011;14939;43.596;1.320;2023-04-10T14:42:52;6.93;;;3.88;;
27505;SDS011;14939;43.596;1.320;2023-04-10T14:45:18;6.07;;;3.50;;
27505;SDS011;14939;43.596;1.320;2023-04-10T14:47:44;11.07;;;4.40;;
27505;SDS011;14939;43.596;1.320;2023-04-10T14:50:10;6.32;;;3.95;;
27505;SDS011;14939;43.596;1.320;2023-04-10T14:52:35;8.15;;;4.20;;
27505;SDS011;14939;43.596;1.320;2023-04-10T14:55:01;9.40;;;4.60;;
27505;SDS011;14939;43.596;1.320;2023-04-10T14:57:27;11.52;;;4.50;;
27505;SDS011;14939;43.596;1.320;2023-04-10T14:59:53;11.05;;;4.32;;
27505;SDS011;14939;43.596;1.320;2023-04-10T15:02:19;7.20;;;4.28;;
27505;SDS011;14939;43.596;1.320;2023-04-10T15:04:45;10.13;;;4.50;;
27505;SDS011;14939;43.596;1.320;2023-04-10T15:07:12;9.32;;;4.80;;
27505;SDS011;14939;43.596;1.320;2023-04-10T15:09:38;10.18;;;4.75;;
27505;SDS011;14939;43.596;1.320;2023-04-10T15:12:04;11.38;;;4.40;;
27505;SDS011;14939;43.596;1.320;2023-04-10T15:14:30;11.05;;;4.68;;
27505;SDS011;14939;43.596;1.320;2023-04-10T15:16:56;8.80;;;4.57;;
27505;SDS011;14939;43.596;1.320;2023-04-10T15:19:22;11.25;;;4.93;;
27505;SDS011;14939;43.596;1.320;2023-04-10T15:21:48;11.65;;;4.93;;
27505;SDS011;14939;43.596;1.320;2023-04-10T15:24:13;13.57;;;4.85;;
27505;SDS011;14939;43.596;1.320;2023-04-10T15:26:42;11.60;;;5.15;;
27505;SDS011;14939;43.596;1.320;2023-04-10T15:29:13;9.25;;;4.80;;
27505;SDS011;14939;43.596;1.320;2023-04-10T15:31:39;11.00;;;4.90;;
27505;SDS011;14939;43.596;1.320;2023-04-10T15:34:05;9.82;;;5.32;;
27505;SDS011;14939;43.596;1.320;2023-04-10T15:36:30;10.10;;;5.10;;
27505;SDS011;14939;43.596;1.320;2023-04-10T15:38:56;11.55;;;5.10;;
27505;SDS011;14939;43.596;1.320;2023-04-10T15:41:27;10.85;;;4.82;;
27505;SDS011;14939;43.596;1.320;2023-04-10T15:43:55;12.23;;;4.50;;
27505;SDS011;14939;43.596;1.320;2023-04-10T15:46:21;11.70;;;5.38;;
27505;SDS011;14939;43.596;1.320;2023-04-10T15:48:47;16.02;;;4.97;;
27505;SDS011;14939;43.596;1.320;2023-04-10T15:51:12;8.30;;;4.53;;
27505;SDS011;14939;43.596;1.320;2023-04-10T15:53:38;8.88;;;4.60;;
27505;SDS011;14939;43.596;1.320;2023-04-10T15:56:03;11.70;;;5.47;;
27505;SDS011;14939;43.596;1.320;2023-04-10T15:58:30;12.48;;;5.05;;
27505;SDS011;14939;43.596;1.320;2023-04-10T16:00:56;9.93;;;5.05;;
27505;SDS011;14939;43.596;1.320;2023-04-10T16:03:21;10.20;;;4.65;;
27505;SDS011;14939;43.596;1.320;2023-04-10T16:05:47;14.38;;;5.35;;
27505;SDS011;14939;43.596;1.320;2023-04-10T16:08:13;9.60;;;4.90;;
27505;SDS011;14939;43.596;1.320;2023-04-10T16:10:38;9.57;;;4.38;;
27505;SDS011;14939;43.596;1.320;2023-04-10T16:13:04;14.63;;;4.82;;
27505;SDS011;14939;43.596;1.320;2023-04-10T16:15:34;12.52;;;4.47;;
27505;SDS011;14939;43.596;1.320;2023-04-10T16:18:02;13.10;;;4.78;;
27505;SDS011;14939;43.596;1.320;2023-04-10T16:20:28;10.82;;;4.78;;
27505;SDS011;14939;43.596;1.320;2023-04-10T16:22:54;8.90;;;4.10;;
27505;SDS011;14939;43.596;1.320;2023-04-10T16:25:21;11.68;;;3.80;;
27505;SDS011;14939;43.596;1.320;2023-04-10T16:27:47;9.27;;;3.97;;
27505;SDS011;14939;43.596;1.320;2023-04-10T16:30:13;11.45;;;4.63;;
27505;SDS011;14939;43.596;1.320;2023-04-10T16:32:39;13.23;;;4.70;;
27505;SDS011;14939;43.596;1.320;2023-04-10T16:35:05;8.57;;;3.88;;
27505;SDS011;14939;43.596;1.320;2023-04-10T16:37:31;8.82;;;3.78;;
27505;SDS011;14939;43.596;1.320;2023-04-10T16:39:56;9.07;;;3.83;;
27505;SDS011;14939;43.596;1.320;2023-04-10T16:42:22;10.55;;;4.03;;
27505;SDS011;14939;43.596;1.320;2023-04-10T16:44:48;11.73;;;3.90;;
27505;SDS011;14939;43.596;1.320;2023-04-10T16:47:13;7.95;;;3.67;;
27505;SDS011;14939;43.596;1.320;2023-04-10T16:49:39;8.60;;;3.63;;
27505;SDS011;14939;43.596;1.320;2023-04-10T16:52:09;7.93;;;3.80;;
27505;SDS011;14939;43.596;1.320;2023-04-10T16:54:38;9.35;;;3.60;;
27505;SDS011;14939;43.596;1.320;2023-04-10T16:57:04;10.90;;;3.67;;